sensor_id;sensor_type;location;lat;lon;timestamp;temperature;humidity
6662;DHT22;3367;48.714;8.994;2022-07-15T00:02:16;18.30;1.00
6662;DHT22;3367;48.714;8.994;2022-07-15T00:04:43;18.30;1.00
6662;DHT22;3367;48.714;8.994;2022-07-15T00:07:09;18.20;1.00
6662;DHT22;3367;48.714;8.994;2022-07-15T00:09:36;18.10;1.00
6662;DHT22;3367;48.714;8.994;2022-07-15T00:12:22;18.00;1.00
6662;DHT22;3367;48.714;8.994;2022-07-15T00:14:49;18.00;1.00
6662;DHT22;3367;48.714;8.994;2022-07-15T00:17:16;17.80;1.00
6662;DHT22;3367;48.714;8.994;2022-07-15T00:19:42;17.80;1.00
6662;DHT22;3367;48.714;8.994;2022-07-15T00:22:09;17.70;1.00
6662;DHT22;3367;48.714;8.994;2022-07-15T00:24:37;17.70;1.00
6662;DHT22;3367;48.714;8.994;2022-07-15T00:27:03;17.60;1.00
6662;DHT22;3367;48.714;8.994;2022-07-15T00:29:32;17.50;1.00
6662;DHT22;3367;48.714;8.994;2022-07-15T00:31:59;17.50;1.00
6662;DHT22;3367;48.714;8.994;2022-07-15T00:34:26;17.50;1.00
6662;DHT22;3367;48.714;8.994;2022-07-15T00:36:52;17.40;1.00
6662;DHT22;3367;48.714;8.994;2022-07-15T00:39:19;17.40;1.00
6662;DHT22;3367;48.714;8.994;2022-07-15T00:41:46;17.40;1.00
6662;DHT22;3367;48.714;8.994;2022-07-15T00:44:13;17.30;1.00
6662;DHT22;3367;48.714;8.994;2022-07-15T00:46:41;17.20;1.00
6662;DHT22;3367;48.714;8.994;2022-07-15T00:49:09;17.20;1.00
6662;DHT22;3367;48.714;8.994;2022-07-15T00:51:40;17.10;1.00
6662;DHT22;3367;48.714;8.994;2022-07-15T00:54:09;17.00;1.00
6662;DHT22;3367;48.714;8.994;2022-07-15T00:56:38;17.00;1.00
6662;DHT22;3367;48.714;8.994;2022-07-15T00:59:06;16.90;1.00
6662;DHT22;3367;48.714;8.994;2022-07-15T01:01:33;16.90;1.00
6662;DHT22;3367;48.714;8.994;2022-07-15T01:04:04;16.90;1.00
6662;DHT22;3367;48.714;8.994;2022-07-15T01:06:32;16.80;1.00
6662;DHT22;3367;48.714;8.994;2022-07-15T01:08:59;16.80;1.00
6662;DHT22;3367;48.714;8.994;2022-07-15T01:11:27;16.80;1.00
6662;DHT22;3367;48.714;8.994;2022-07-15T01:13:56;16.80;1.00
6662;DHT22;3367;48.714;8.994;2022-07-15T01:16:23;16.70;1.00
6662;DHT22;3367;48.714;8.994;2022-07-15T01:18:49;16.70;1.00
6662;DHT22;3367;48.714;8.994;2022-07-15T01:21:18;16.70;1.00
6662;DHT22;3367;48.714;8.994;2022-07-15T01:23:45;16.70;1.00
6662;DHT22;3367;48.714;8.994;2022-07-15T01:26:13;16.70;1.00
6662;DHT22;3367;48.714;8.994;2022-07-15T01:28:41;16.60;1.00
6662;DHT22;3367;48.714;8.994;2022-07-15T01:31:08;16.50;1.00
6662;DHT22;3367;48.714;8.994;2022-07-15T01:33:36;16.50;1.00
6662;DHT22;3367;48.714;8.994;2022-07-15T01:36:05;16.40;1.00
6662;DHT22;3367;48.714;8.994;2022-07-15T01:38:33;16.40;1.00
6662;DHT22;3367;48.714;8.994;2022-07-15T01:41:00;16.30;1.00
6662;DHT22;3367;48.714;8.994;2022-07-15T01:43:27;16.20;1.00
6662;DHT22;3367;48.714;8.994;2022-07-15T01:45:53;16.00;1.00
6662;DHT22;3367;48.714;8.994;2022-07-15T01:48:21;16.10;1.00
6662;DHT22;3367;48.714;8.994;2022-07-15T01:51:07;16.00;1.00
6662;DHT22;3367;48.714;8.994;2022-07-15T01:53:35;16.00;1.00
6662;DHT22;3367;48.714;8.994;2022-07-15T01:56:03;16.00;1.00
6662;DHT22;3367;48.714;8.994;2022-07-15T01:58:30;15.90;1.00
6662;DHT22;3367;48.714;8.994;2022-07-15T02:00:57;15.90;1.00
6662;DHT22;3367;48.714;8.994;2022-07-15T02:03:23;15.90;1.00
6662;DHT22;3367;48.714;8.994;2022-07-15T02:05:50;15.80;1.00
6662;DHT22;3367;48.714;8.994;2022-07-15T02:08:17;15.80;1.00
6662;DHT22;3367;48.714;8.994;2022-07-15T02:10:45;15.80;1.00
6662;DHT22;3367;48.714;8.994;2022-07-15T02:13:13;15.80;1.00
6662;DHT22;3367;48.714;8.994;2022-07-15T02:15:41;15.90;1.00
6662;DHT22;3367;48.714;8.994;2022-07-15T02:18:08;15.70;1.00
6662;DHT22;3367;48.714;8.994;2022-07-15T02:20:37;15.70;1.00
6662;DHT22;3367;48.714;8.994;2022-07-15T02:23:04;15.60;1.00
6662;DHT22;3367;48.714;8.994;2022-07-15T02:25:33;15.60;1.00
6662;DHT22;3367;48.714;8.994;2022-07-15T02:28:03;15.50;1.00
6662;DHT22;3367;48.714;8.994;2022-07-15T02:30:31;15.50;1.00
6662;DHT22;3367;48.714;8.994;2022-07-15T02:32:59;15.30;1.00
6662;DHT22;3367;48.714;8.994;2022-07-15T02:35:26;15.30;1.00
6662;DHT22;3367;48.714;8.994;2022-07-15T02:37:53;15.30;1.00
6662;DHT22;3367;48.714;8.994;2022-07-15T02:40:20;15.20;1.00
6662;DHT22;3367;48.714;8.994;2022-07-15T02:42:47;15.10;1.00
6662;DHT22;3367;48.714;8.994;2022-07-15T02:45:16;15.20;1.00
6662;DHT22;3367;48.714;8.994;2022-07-15T02:47:43;15.10;1.00
6662;DHT22;3367;48.714;8.994;2022-07-15T02:50:10;15.10;1.00
6662;DHT22;3367;48.714;8.994;2022-07-15T02:52:37;15.10;1.00
6662;DHT22;3367;48.714;8.994;2022-07-15T02:55:05;15.00;1.00
6662;DHT22;3367;48.714;8.994;2022-07-15T02:57:32;15.00;1.00
6662;DHT22;3367;48.714;8.994;2022-07-15T02:59:58;14.90;1.00
6662;DHT22;3367;48.714;8.994;2022-07-15T03:02:27;14.90;1.00
6662;DHT22;3367;48.714;8.994;2022-07-15T03:04:53;14.80;1.00
6662;DHT22;3367;48.714;8.994;2022-07-15T03:07:20;14.70;1.00
6662;DHT22;3367;48.714;8.994;2022-07-15T03:09:47;14.70;1.00
6662;DHT22;3367;48.714;8.994;2022-07-15T03:12:14;14.70;1.00
6662;DHT22;3367;48.714;8.994;2022-07-15T03:14:41;14.70;1.00
6662;DHT22;3367;48.714;8.994;2022-07-15T03:17:08;14.80;1.00
6662;DHT22;3367;48.714;8.994;2022-07-15T03:19:36;14.70;1.00
6662;DHT22;3367;48.714;8.994;2022-07-15T03:22:03;14.70;1.00
6662;DHT22;3367;48.714;8.994;2022-07-15T03:24:30;14.60;1.00
6662;DHT22;3367;48.714;8.994;2022-07-15T03:26:57;14.60;1.00
6662;DHT22;3367;48.714;8.994;2022-07-15T03:29:24;14.40;1.00
6662;DHT22;3367;48.714;8.994;2022-07-15T03:31:51;14.50;1.00
6662;DHT22;3367;48.714;8.994;2022-07-15T03:34:18;14.50;1.00
6662;DHT22;3367;48.714;8.994;2022-07-15T03:36:46;14.60;1.00
6662;DHT22;3367;48.714;8.994;2022-07-15T03:39:13;14.50;1.00
6662;DHT22;3367;48.714;8.994;2022-07-15T03:41:40;14.50;1.00
6662;DHT22;3367;48.714;8.994;2022-07-15T03:44:07;14.40;1.00
6662;DHT22;3367;48.714;8.994;2022-07-15T03:46:34;14.50;1.00
6662;DHT22;3367;48.714;8.994;2022-07-15T03:49:02;14.40;1.00
6662;DHT22;3367;48.714;8.994;2022-07-15T03:51:29;14.40;1.00
6662;DHT22;3367;48.714;8.994;2022-07-15T03:53:58;14.40;1.00
6662;DHT22;3367;48.714;8.994;2022-07-15T03:56:25;14.30;1.00
6662;DHT22;3367;48.714;8.994;2022-07-15T03:58:52;14.40;1.00
6662;DHT22;3367;48.714;8.994;2022-07-15T04:01:19;14.40;1.00
6662;DHT22;3367;48.714;8.994;2022-07-15T04:03:46;14.30;1.00
6662;DHT22;3367;48.714;8.994;2022-07-15T04:06:13;14.40;1.00
6662;DHT22;3367;48.714;8.994;2022-07-15T04:08:40;14.30;1.00
6662;DHT22;3367;48.714;8.994;2022-07-15T04:11:09;14.40;1.00
6662;DHT22;3367;48.714;8.994;2022-07-15T04:13:36;14.50;1.00
6662;DHT22;3367;48.714;8.994;2022-07-15T04:16:04;14.50;1.00
6662;DHT22;3367;48.714;8.994;2022-07-15T04:18:31;14.50;1.00
6662;DHT22;3367;48.714;8.994;2022-07-15T04:20:58;14.60;1.00
6662;DHT22;3367;48.714;8.994;2022-07-15T04:23:25;14.60;1.00
6662;DHT22;3367;48.714;8.994;2022-07-15T04:25:52;14.60;1.00
6662;DHT22;3367;48.714;8.994;2022-07-15T04:28:21;14.60;1.00
6662;DHT22;3367;48.714;8.994;2022-07-15T04:30:49;14.70;1.00
6662;DHT22;3367;48.714;8.994;2022-07-15T04:33:17;14.70;1.00
6662;DHT22;3367;48.714;8.994;2022-07-15T04:35:44;14.60;1.00
6662;DHT22;3367;48.714;8.994;2022-07-15T04:38:12;14.70;1.00
6662;DHT22;3367;48.714;8.994;2022-07-15T04:40:40;14.70;1.00
6662;DHT22;3367;48.714;8.994;2022-07-15T04:43:08;14.80;1.00
6662;DHT22;3367;48.714;8.994;2022-07-15T04:45:36;14.80;1.00
6662;DHT22;3367;48.714;8.994;2022-07-15T04:48:04;14.90;1.00
6662;DHT22;3367;48.714;8.994;2022-07-15T04:50:52;14.90;1.00
6662;DHT22;3367;48.714;8.994;2022-07-15T04:53:18;15.00;1.00
6662;DHT22;3367;48.714;8.994;2022-07-15T04:55:45;15.10;1.00
6662;DHT22;3367;48.714;8.994;2022-07-15T04:58:12;15.10;1.00
6662;DHT22;3367;48.714;8.994;2022-07-15T05:00:41;15.30;1.00
6662;DHT22;3367;48.714;8.994;2022-07-15T05:03:08;15.40;1.00
6662;DHT22;3367;48.714;8.994;2022-07-15T05:05:35;15.40;1.00
6662;DHT22;3367;48.714;8.994;2022-07-15T05:08:02;15.50;1.00
6662;DHT22;3367;48.714;8.994;2022-07-15T05:10:29;15.50;1.00
6662;DHT22;3367;48.714;8.994;2022-07-15T05:12:56;15.60;1.00
6662;DHT22;3367;48.714;8.994;2022-07-15T05:15:24;15.60;1.00
6662;DHT22;3367;48.714;8.994;2022-07-15T05:17:52;15.70;1.00
6662;DHT22;3367;48.714;8.994;2022-07-15T05:20:19;15.70;1.00
6662;DHT22;3367;48.714;8.994;2022-07-15T05:22:47;15.90;1.00
6662;DHT22;3367;48.714;8.994;2022-07-15T05:25:14;15.90;1.00
6662;DHT22;3367;48.714;8.994;2022-07-15T05:27:41;16.20;1.00
6662;DHT22;3367;48.714;8.994;2022-07-15T05:30:09;16.50;1.00
6662;DHT22;3367;48.714;8.994;2022-07-15T05:32:38;17.00;1.00
6662;DHT22;3367;48.714;8.994;2022-07-15T05:35:07;17.40;1.00
6662;DHT22;3367;48.714;8.994;2022-07-15T05:37:36;17.90;1.00
6662;DHT22;3367;48.714;8.994;2022-07-15T05:40:05;18.30;1.00
6662;DHT22;3367;48.714;8.994;2022-07-15T05:42:32;18.80;1.00
6662;DHT22;3367;48.714;8.994;2022-07-15T05:44:59;19.40;1.00
6662;DHT22;3367;48.714;8.994;2022-07-15T05:47:27;19.70;1.00
6662;DHT22;3367;48.714;8.994;2022-07-15T05:49:54;19.90;1.00
6662;DHT22;3367;48.714;8.994;2022-07-15T05:52:22;20.30;1.00
6662;DHT22;3367;48.714;8.994;2022-07-15T05:54:49;20.40;1.00
6662;DHT22;3367;48.714;8.994;2022-07-15T05:57:16;20.60;1.00
6662;DHT22;3367;48.714;8.994;2022-07-15T05:59:43;21.00;1.00
6662;DHT22;3367;48.714;8.994;2022-07-15T06:02:09;21.00;1.00
6662;DHT22;3367;48.714;8.994;2022-07-15T06:04:37;21.40;1.00
6662;DHT22;3367;48.714;8.994;2022-07-15T06:07:04;21.50;1.00
6662;DHT22;3367;48.714;8.994;2022-07-15T06:09:32;22.10;1.00
6662;DHT22;3367;48.714;8.994;2022-07-15T06:11:59;22.30;1.00
6662;DHT22;3367;48.714;8.994;2022-07-15T06:14:26;22.50;1.00
6662;DHT22;3367;48.714;8.994;2022-07-15T06:16:53;22.60;1.00
6662;DHT22;3367;48.714;8.994;2022-07-15T06:19:20;22.20;1.00
6662;DHT22;3367;48.714;8.994;2022-07-15T06:21:47;22.10;1.00
6662;DHT22;3367;48.714;8.994;2022-07-15T06:24:14;22.40;1.00
6662;DHT22;3367;48.714;8.994;2022-07-15T06:26:42;22.50;1.00
6662;DHT22;3367;48.714;8.994;2022-07-15T06:29:09;22.40;1.00
6662;DHT22;3367;48.714;8.994;2022-07-15T06:31:36;22.70;1.00
6662;DHT22;3367;48.714;8.994;2022-07-15T06:34:03;22.80;1.00
6662;DHT22;3367;48.714;8.994;2022-07-15T06:36:30;23.00;1.00
6662;DHT22;3367;48.714;8.994;2022-07-15T06:38:57;23.50;1.00
6662;DHT22;3367;48.714;8.994;2022-07-15T06:41:23;23.40;1.00
6662;DHT22;3367;48.714;8.994;2022-07-15T06:43:52;23.40;1.00
6662;DHT22;3367;48.714;8.994;2022-07-15T06:46:18;23.70;1.00
6662;DHT22;3367;48.714;8.994;2022-07-15T06:48:45;23.80;1.00
6662;DHT22;3367;48.714;8.994;2022-07-15T06:51:12;23.70;1.00
6662;DHT22;3367;48.714;8.994;2022-07-15T06:53:39;23.80;1.00
6662;DHT22;3367;48.714;8.994;2022-07-15T06:56:06;23.50;1.00
6662;DHT22;3367;48.714;8.994;2022-07-15T06:58:33;23.90;1.00
6662;DHT22;3367;48.714;8.994;2022-07-15T07:01:01;23.80;1.00
6662;DHT22;3367;48.714;8.994;2022-07-15T07:03:28;23.80;1.00
6662;DHT22;3367;48.714;8.994;2022-07-15T07:05:55;23.30;1.00
6662;DHT22;3367;48.714;8.994;2022-07-15T07:08:22;23.70;1.00
6662;DHT22;3367;48.714;8.994;2022-07-15T07:10:49;23.90;1.00
6662;DHT22;3367;48.714;8.994;2022-07-15T07:13:16;24.20;1.00
6662;DHT22;3367;48.714;8.994;2022-07-15T07:15:43;24.20;1.00
6662;DHT22;3367;48.714;8.994;2022-07-15T07:18:11;23.80;1.00
6662;DHT22;3367;48.714;8.994;2022-07-15T07:20:38;23.50;1.00
6662;DHT22;3367;48.714;8.994;2022-07-15T07:23:08;23.80;1.00
6662;DHT22;3367;48.714;8.994;2022-07-15T07:25:35;24.00;1.00
6662;DHT22;3367;48.714;8.994;2022-07-15T07:28:02;24.10;1.00
6662;DHT22;3367;48.714;8.994;2022-07-15T07:30:29;24.20;1.00
6662;DHT22;3367;48.714;8.994;2022-07-15T07:32:56;24.20;1.00
6662;DHT22;3367;48.714;8.994;2022-07-15T07:35:24;23.90;1.00
6662;DHT22;3367;48.714;8.994;2022-07-15T07:37:51;24.40;1.00
6662;DHT22;3367;48.714;8.994;2022-07-15T07:40:18;24.20;1.00
6662;DHT22;3367;48.714;8.994;2022-07-15T07:42:45;24.20;1.00
6662;DHT22;3367;48.714;8.994;2022-07-15T07:45:12;23.70;1.00
6662;DHT22;3367;48.714;8.994;2022-07-15T07:47:39;23.60;1.00
6662;DHT22;3367;48.714;8.994;2022-07-15T07:50:08;24.10;1.00
6662;DHT22;3367;48.714;8.994;2022-07-15T07:52:36;24.50;1.00
6662;DHT22;3367;48.714;8.994;2022-07-15T07:55:03;24.80;1.00
6662;DHT22;3367;48.714;8.994;2022-07-15T07:57:31;24.50;1.00
6662;DHT22;3367;48.714;8.994;2022-07-15T07:59:58;25.00;1.00
6662;DHT22;3367;48.714;8.994;2022-07-15T08:02:25;24.60;1.00
6662;DHT22;3367;48.714;8.994;2022-07-15T08:04:52;24.70;1.00
6662;DHT22;3367;48.714;8.994;2022-07-15T08:07:19;24.90;1.00
6662;DHT22;3367;48.714;8.994;2022-07-15T08:09:47;25.00;1.00
6662;DHT22;3367;48.714;8.994;2022-07-15T08:12:14;25.40;1.00
6662;DHT22;3367;48.714;8.994;2022-07-15T08:14:41;25.50;1.00
6662;DHT22;3367;48.714;8.994;2022-07-15T08:17:08;25.70;1.00
6662;DHT22;3367;48.714;8.994;2022-07-15T08:19:35;25.20;1.00
6662;DHT22;3367;48.714;8.994;2022-07-15T08:22:02;25.20;1.00
6662;DHT22;3367;48.714;8.994;2022-07-15T08:24:28;25.10;1.00
6662;DHT22;3367;48.714;8.994;2022-07-15T08:26:57;25.10;1.00
6662;DHT22;3367;48.714;8.994;2022-07-15T08:29:23;24.80;1.00
6662;DHT22;3367;48.714;8.994;2022-07-15T08:31:50;24.50;1.00
6662;DHT22;3367;48.714;8.994;2022-07-15T08:34:17;24.30;1.00
6662;DHT22;3367;48.714;8.994;2022-07-15T08:36:44;24.40;1.00
6662;DHT22;3367;48.714;8.994;2022-07-15T08:39:11;24.50;1.00
6662;DHT22;3367;48.714;8.994;2022-07-15T08:41:38;24.50;1.00
6662;DHT22;3367;48.714;8.994;2022-07-15T08:44:07;24.70;1.00
6662;DHT22;3367;48.714;8.994;2022-07-15T08:46:35;24.80;1.00
6662;DHT22;3367;48.714;8.994;2022-07-15T08:49:05;25.00;1.00
6662;DHT22;3367;48.714;8.994;2022-07-15T08:51:35;25.00;1.00
6662;DHT22;3367;48.714;8.994;2022-07-15T09:01:07;24.80;1.00
6662;DHT22;3367;48.714;8.994;2022-07-15T09:03:34;25.10;1.00
6662;DHT22;3367;48.714;8.994;2022-07-15T09:06:00;25.30;1.00
6662;DHT22;3367;48.714;8.994;2022-07-15T09:08:27;25.00;1.00
6662;DHT22;3367;48.714;8.994;2022-07-15T09:10:57;25.00;1.00
6662;DHT22;3367;48.714;8.994;2022-07-15T09:13:30;25.00;1.00
6662;DHT22;3367;48.714;8.994;2022-07-15T09:15:59;25.20;1.00
6662;DHT22;3367;48.714;8.994;2022-07-15T09:18:29;25.40;1.00
6662;DHT22;3367;48.714;8.994;2022-07-15T09:20:57;25.40;1.00
6662;DHT22;3367;48.714;8.994;2022-07-15T09:23:26;25.20;1.00
6662;DHT22;3367;48.714;8.994;2022-07-15T09:25:57;24.90;1.00
6662;DHT22;3367;48.714;8.994;2022-07-15T09:28:38;24.80;1.00
6662;DHT22;3367;48.714;8.994;2022-07-15T09:31:05;24.50;1.00
6662;DHT22;3367;48.714;8.994;2022-07-15T09:34:03;24.40;1.00
6662;DHT22;3367;48.714;8.994;2022-07-15T09:36:31;24.20;1.00
6662;DHT22;3367;48.714;8.994;2022-07-15T09:39:00;24.00;1.00
6662;DHT22;3367;48.714;8.994;2022-07-15T09:41:30;23.90;1.00
6662;DHT22;3367;48.714;8.994;2022-07-15T09:44:00;23.60;1.00
6662;DHT22;3367;48.714;8.994;2022-07-15T09:46:29;23.20;1.00
6662;DHT22;3367;48.714;8.994;2022-07-15T09:49:06;23.40;1.00
6662;DHT22;3367;48.714;8.994;2022-07-15T09:51:43;23.80;1.00
6662;DHT22;3367;48.714;8.994;2022-07-15T09:54:10;23.70;1.00
6662;DHT22;3367;48.714;8.994;2022-07-15T09:56:38;23.80;1.00
6662;DHT22;3367;48.714;8.994;2022-07-15T09:59:06;23.70;1.00
6662;DHT22;3367;48.714;8.994;2022-07-15T10:01:33;23.80;1.00
6662;DHT22;3367;48.714;8.994;2022-07-15T10:04:01;23.60;1.00
6662;DHT22;3367;48.714;8.994;2022-07-15T10:06:29;23.90;1.00
6662;DHT22;3367;48.714;8.994;2022-07-15T10:08:58;23.70;1.00
6662;DHT22;3367;48.714;8.994;2022-07-15T10:11:26;23.70;1.00
6662;DHT22;3367;48.714;8.994;2022-07-15T10:17:26;23.70;1.00
6662;DHT22;3367;48.714;8.994;2022-07-15T10:23:22;23.60;1.00
6662;DHT22;3367;48.714;8.994;2022-07-15T10:26:02;23.30;1.00
6662;DHT22;3367;48.714;8.994;2022-07-15T10:28:41;23.20;1.00
6662;DHT22;3367;48.714;8.994;2022-07-15T10:31:17;23.20;1.00
6662;DHT22;3367;48.714;8.994;2022-07-15T10:34:15;23.40;1.00
6662;DHT22;3367;48.714;8.994;2022-07-15T10:36:54;23.60;1.00
6662;DHT22;3367;48.714;8.994;2022-07-15T10:39:25;23.60;1.00
6662;DHT22;3367;48.714;8.994;2022-07-15T10:41:53;23.70;1.00
6662;DHT22;3367;48.714;8.994;2022-07-15T10:44:22;23.80;1.00
6662;DHT22;3367;48.714;8.994;2022-07-15T10:47:16;23.90;1.00
6662;DHT22;3367;48.714;8.994;2022-07-15T10:49:44;23.80;1.00
6662;DHT22;3367;48.714;8.994;2022-07-15T10:52:12;23.60;1.00
6662;DHT22;3367;48.714;8.994;2022-07-15T10:57:07;23.00;1.00
6662;DHT22;3367;48.714;8.994;2022-07-15T10:59:39;23.10;1.00
6662;DHT22;3367;48.714;8.994;2022-07-15T11:02:16;23.20;1.00
6662;DHT22;3367;48.714;8.994;2022-07-15T11:04:44;23.20;1.00
6662;DHT22;3367;48.714;8.994;2022-07-15T11:07:25;23.20;1.00
6662;DHT22;3367;48.714;8.994;2022-07-15T11:09:58;23.30;1.00
6662;DHT22;3367;48.714;8.994;2022-07-15T11:13:02;23.40;1.00
6662;DHT22;3367;48.714;8.994;2022-07-15T11:15:29;23.50;1.00
6662;DHT22;3367;48.714;8.994;2022-07-15T11:17:57;23.50;1.00
6662;DHT22;3367;48.714;8.994;2022-07-15T11:20:26;23.60;1.00
6662;DHT22;3367;48.714;8.994;2022-07-15T11:22:55;23.70;1.00
6662;DHT22;3367;48.714;8.994;2022-07-15T11:25:24;23.70;1.00
6662;DHT22;3367;48.714;8.994;2022-07-15T11:27:56;23.80;1.00
6662;DHT22;3367;48.714;8.994;2022-07-15T11:30:26;23.60;1.00
6662;DHT22;3367;48.714;8.994;2022-07-15T11:32:57;23.70;1.00
6662;DHT22;3367;48.714;8.994;2022-07-15T11:35:25;23.50;1.00
6662;DHT22;3367;48.714;8.994;2022-07-15T11:38:02;23.50;1.00
6662;DHT22;3367;48.714;8.994;2022-07-15T11:40:29;23.50;1.00
6662;DHT22;3367;48.714;8.994;2022-07-15T11:43:16;23.70;1.00
6662;DHT22;3367;48.714;8.994;2022-07-15T11:46:03;23.60;1.00
6662;DHT22;3367;48.714;8.994;2022-07-15T11:48:37;23.80;1.00
6662;DHT22;3367;48.714;8.994;2022-07-15T11:51:07;23.80;1.00
6662;DHT22;3367;48.714;8.994;2022-07-15T11:53:36;23.60;1.00
6662;DHT22;3367;48.714;8.994;2022-07-15T11:56:03;23.20;1.00
6662;DHT22;3367;48.714;8.994;2022-07-15T11:58:33;23.20;1.00
6662;DHT22;3367;48.714;8.994;2022-07-15T12:01:02;23.30;1.00
6662;DHT22;3367;48.714;8.994;2022-07-15T12:03:33;23.50;1.00
6662;DHT22;3367;48.714;8.994;2022-07-15T12:06:06;23.70;1.00
6662;DHT22;3367;48.714;8.994;2022-07-15T12:08:34;23.70;1.00
6662;DHT22;3367;48.714;8.994;2022-07-15T12:11:00;23.60;1.00
6662;DHT22;3367;48.714;8.994;2022-07-15T12:13:40;23.60;1.00
6662;DHT22;3367;48.714;8.994;2022-07-15T12:16:08;23.70;1.00
6662;DHT22;3367;48.714;8.994;2022-07-15T12:18:35;23.90;1.00
6662;DHT22;3367;48.714;8.994;2022-07-15T12:21:02;23.80;1.00
6662;DHT22;3367;48.714;8.994;2022-07-15T12:23:29;23.80;1.00
6662;DHT22;3367;48.714;8.994;2022-07-15T12:26:04;23.90;1.00
6662;DHT22;3367;48.714;8.994;2022-07-15T12:28:31;24.20;1.00
6662;DHT22;3367;48.714;8.994;2022-07-15T12:30:59;24.30;1.00
6662;DHT22;3367;48.714;8.994;2022-07-15T12:33:27;24.10;1.00
6662;DHT22;3367;48.714;8.994;2022-07-15T12:36:15;24.00;1.00
6662;DHT22;3367;48.714;8.994;2022-07-15T12:38:42;24.20;1.00
6662;DHT22;3367;48.714;8.994;2022-07-15T12:41:23;24.30;1.00
6662;DHT22;3367;48.714;8.994;2022-07-15T12:43:52;24.40;1.00
6662;DHT22;3367;48.714;8.994;2022-07-15T12:46:19;24.50;1.00
6662;DHT22;3367;48.714;8.994;2022-07-15T12:48:49;24.40;1.00
6662;DHT22;3367;48.714;8.994;2022-07-15T12:51:16;24.20;1.00
6662;DHT22;3367;48.714;8.994;2022-07-15T12:53:43;24.20;1.00
6662;DHT22;3367;48.714;8.994;2022-07-15T12:56:11;24.20;1.00
6662;DHT22;3367;48.714;8.994;2022-07-15T12:58:38;24.20;1.00
6662;DHT22;3367;48.714;8.994;2022-07-15T13:01:09;24.20;1.00
6662;DHT22;3367;48.714;8.994;2022-07-15T13:03:36;24.10;1.00
6662;DHT22;3367;48.714;8.994;2022-07-15T13:06:05;24.00;1.00
6662;DHT22;3367;48.714;8.994;2022-07-15T13:08:33;24.10;1.00
6662;DHT22;3367;48.714;8.994;2022-07-15T13:11:03;24.20;1.00
6662;DHT22;3367;48.714;8.994;2022-07-15T13:13:32;24.10;1.00
6662;DHT22;3367;48.714;8.994;2022-07-15T13:16:00;24.10;1.00
6662;DHT22;3367;48.714;8.994;2022-07-15T13:18:27;24.10;1.00
6662;DHT22;3367;48.714;8.994;2022-07-15T13:20:55;24.10;1.00
6662;DHT22;3367;48.714;8.994;2022-07-15T13:23:23;24.20;1.00
6662;DHT22;3367;48.714;8.994;2022-07-15T13:25:51;24.20;1.00
6662;DHT22;3367;48.714;8.994;2022-07-15T13:28:20;24.20;1.00
6662;DHT22;3367;48.714;8.994;2022-07-15T13:30:47;24.10;1.00
6662;DHT22;3367;48.714;8.994;2022-07-15T13:33:15;24.10;1.00
6662;DHT22;3367;48.714;8.994;2022-07-15T13:35:41;24.00;1.00
6662;DHT22;3367;48.714;8.994;2022-07-15T13:38:08;23.80;1.00
6662;DHT22;3367;48.714;8.994;2022-07-15T13:40:36;23.80;1.00
6662;DHT22;3367;48.714;8.994;2022-07-15T13:43:03;23.90;1.00
6662;DHT22;3367;48.714;8.994;2022-07-15T13:45:30;23.80;1.00
6662;DHT22;3367;48.714;8.994;2022-07-15T13:47:57;23.60;1.00
6662;DHT22;3367;48.714;8.994;2022-07-15T13:50:23;23.50;1.00
6662;DHT22;3367;48.714;8.994;2022-07-15T13:53:08;23.60;1.00
6662;DHT22;3367;48.714;8.994;2022-07-15T13:55:36;23.60;1.00
6662;DHT22;3367;48.714;8.994;2022-07-15T13:58:05;23.50;1.00
6662;DHT22;3367;48.714;8.994;2022-07-15T14:00:31;23.50;1.00
6662;DHT22;3367;48.714;8.994;2022-07-15T14:02:59;23.60;1.00
6662;DHT22;3367;48.714;8.994;2022-07-15T14:05:25;23.70;1.00
6662;DHT22;3367;48.714;8.994;2022-07-15T14:07:52;23.80;1.00
6662;DHT22;3367;48.714;8.994;2022-07-15T14:10:20;23.70;1.00
6662;DHT22;3367;48.714;8.994;2022-07-15T14:12:49;23.80;1.00
6662;DHT22;3367;48.714;8.994;2022-07-15T14:15:17;23.80;1.00
6662;DHT22;3367;48.714;8.994;2022-07-15T14:17:43;23.80;1.00
6662;DHT22;3367;48.714;8.994;2022-07-15T14:20:10;23.90;1.00
6662;DHT22;3367;48.714;8.994;2022-07-15T14:22:39;24.00;1.00
6662;DHT22;3367;48.714;8.994;2022-07-15T14:25:06;24.00;1.00
6662;DHT22;3367;48.714;8.994;2022-07-15T14:27:34;24.00;1.00
6662;DHT22;3367;48.714;8.994;2022-07-15T14:30:03;24.00;1.00
6662;DHT22;3367;48.714;8.994;2022-07-15T14:32:29;24.00;1.00
6662;DHT22;3367;48.714;8.994;2022-07-15T14:34:56;23.90;1.00
6662;DHT22;3367;48.714;8.994;2022-07-15T14:37:23;23.90;1.00
6662;DHT22;3367;48.714;8.994;2022-07-15T14:39:49;24.00;1.00
6662;DHT22;3367;48.714;8.994;2022-07-15T14:42:16;24.00;1.00
6662;DHT22;3367;48.714;8.994;2022-07-15T14:44:43;23.90;1.00
6662;DHT22;3367;48.714;8.994;2022-07-15T14:47:11;23.70;1.00
6662;DHT22;3367;48.714;8.994;2022-07-15T14:49:38;23.70;1.00
6662;DHT22;3367;48.714;8.994;2022-07-15T14:52:05;23.70;1.00
6662;DHT22;3367;48.714;8.994;2022-07-15T14:54:32;23.80;1.00
6662;DHT22;3367;48.714;8.994;2022-07-15T14:56:58;23.80;1.00
6662;DHT22;3367;48.714;8.994;2022-07-15T14:59:25;23.80;1.00
6662;DHT22;3367;48.714;8.994;2022-07-15T15:01:52;23.80;1.00
6662;DHT22;3367;48.714;8.994;2022-07-15T15:04:20;23.70;1.00
6662;DHT22;3367;48.714;8.994;2022-07-15T15:06:48;23.70;1.00
6662;DHT22;3367;48.714;8.994;2022-07-15T15:09:14;23.70;1.00
6662;DHT22;3367;48.714;8.994;2022-07-15T15:11:42;23.70;1.00
6662;DHT22;3367;48.714;8.994;2022-07-15T15:14:08;23.70;1.00
6662;DHT22;3367;48.714;8.994;2022-07-15T15:16:35;23.60;1.00
6662;DHT22;3367;48.714;8.994;2022-07-15T15:19:02;23.60;1.00
6662;DHT22;3367;48.714;8.994;2022-07-15T15:21:30;23.60;1.00
6662;DHT22;3367;48.714;8.994;2022-07-15T15:23:56;23.70;1.00
6662;DHT22;3367;48.714;8.994;2022-07-15T15:26:23;23.70;1.00
6662;DHT22;3367;48.714;8.994;2022-07-15T15:28:52;23.70;1.00
6662;DHT22;3367;48.714;8.994;2022-07-15T15:31:19;23.60;1.00
6662;DHT22;3367;48.714;8.994;2022-07-15T15:33:46;23.60;1.00
6662;DHT22;3367;48.714;8.994;2022-07-15T15:36:12;23.60;1.00
6662;DHT22;3367;48.714;8.994;2022-07-15T15:38:41;23.50;1.00
6662;DHT22;3367;48.714;8.994;2022-07-15T15:41:08;23.50;1.00
6662;DHT22;3367;48.714;8.994;2022-07-15T15:43:34;23.40;1.00
6662;DHT22;3367;48.714;8.994;2022-07-15T15:46:01;23.40;1.00
6662;DHT22;3367;48.714;8.994;2022-07-15T15:48:29;23.50;1.00
6662;DHT22;3367;48.714;8.994;2022-07-15T15:50:57;23.50;1.00
6662;DHT22;3367;48.714;8.994;2022-07-15T15:53:24;23.50;1.00
6662;DHT22;3367;48.714;8.994;2022-07-15T15:55:52;23.30;1.00
6662;DHT22;3367;48.714;8.994;2022-07-15T15:58:19;23.30;1.00
6662;DHT22;3367;48.714;8.994;2022-07-15T16:00:46;23.30;1.00
6662;DHT22;3367;48.714;8.994;2022-07-15T16:03:13;23.20;1.00
6662;DHT22;3367;48.714;8.994;2022-07-15T16:05:40;23.20;1.00
6662;DHT22;3367;48.714;8.994;2022-07-15T16:08:06;23.20;1.00
6662;DHT22;3367;48.714;8.994;2022-07-15T16:10:33;23.20;1.00
6662;DHT22;3367;48.714;8.994;2022-07-15T16:13:01;23.20;1.00
6662;DHT22;3367;48.714;8.994;2022-07-15T16:15:28;23.20;1.00
6662;DHT22;3367;48.714;8.994;2022-07-15T16:17:55;23.20;1.00
6662;DHT22;3367;48.714;8.994;2022-07-15T16:20:22;23.20;1.00
6662;DHT22;3367;48.714;8.994;2022-07-15T16:22:48;23.30;1.00
6662;DHT22;3367;48.714;8.994;2022-07-15T16:25:21;23.20;1.00
6662;DHT22;3367;48.714;8.994;2022-07-15T16:27:49;23.20;1.00
6662;DHT22;3367;48.714;8.994;2022-07-15T16:30:18;23.10;1.00
6662;DHT22;3367;48.714;8.994;2022-07-15T16:32:46;23.00;1.00
6662;DHT22;3367;48.714;8.994;2022-07-15T16:35:13;23.00;1.00
6662;DHT22;3367;48.714;8.994;2022-07-15T16:37:40;23.10;1.00
6662;DHT22;3367;48.714;8.994;2022-07-15T16:40:07;23.10;1.00
6662;DHT22;3367;48.714;8.994;2022-07-15T16:42:34;23.00;1.00